createdAt,value
2023-03-28T00:01:03.948Z,1024.87
2023-03-28T00:06:11.345Z,1024.94
2023-03-28T00:11:18.498Z,1024.95
2023-03-28T00:16:25.698Z,1024.96
2023-03-28T00:21:32.857Z,1024.99
2023-03-28T00:26:40.153Z,1025.04
2023-03-28T00:31:47.407Z,1025.05
2023-03-28T00:36:54.579Z,1025.05
2023-03-28T00:42:01.859Z,1025.12
2023-03-28T00:47:09.023Z,1025.09
2023-03-28T00:52:16.218Z,1025.20
2023-03-28T00:57:23.478Z,1025.12
2023-03-28T01:02:30.748Z,1025.13
2023-03-28T01:07:37.826Z,1025.18
2023-03-28T01:12:45.084Z,1025.15
2023-03-28T01:17:52.344Z,1025.14
2023-03-28T01:22:59.473Z,1025.10
2023-03-28T01:28:06.677Z,1025.16
2023-03-28T01:33:13.927Z,1025.18
2023-03-28T01:38:21.114Z,1025.24
2023-03-28T01:43:28.388Z,1025.25
2023-03-28T01:48:35.572Z,1025.25
2023-03-28T01:53:42.748Z,1025.22
2023-03-28T01:58:50.189Z,1025.21
2023-03-28T02:03:57.485Z,1025.21
2023-03-28T02:09:04.782Z,1025.22
2023-03-28T02:14:12.064Z,1025.20
2023-03-28T02:19:19.227Z,1025.23
2023-03-28T02:24:26.759Z,1025.18
2023-03-28T02:29:34.072Z,1025.22
2023-03-28T02:34:41.766Z,1025.29
2023-03-28T02:39:49.145Z,1025.47
2023-03-28T02:44:56.500Z,1025.54
2023-03-28T02:50:03.987Z,1025.65
2023-03-28T02:55:11.501Z,1025.64
2023-03-28T03:00:19.109Z,1025.65
2023-03-28T03:05:26.720Z,1025.72
2023-03-28T03:10:34.343Z,1025.76
2023-03-28T03:15:41.907Z,1025.82
2023-03-28T03:20:49.427Z,1025.82
2023-03-28T03:26:03.508Z,1025.70
2023-03-28T03:31:10.988Z,1025.68
2023-03-28T03:36:18.372Z,1025.61
2023-03-28T03:41:25.810Z,1025.49
2023-03-28T03:46:33.496Z,1025.49
2023-03-28T03:51:43.912Z,1025.45
2023-03-28T03:57:24.945Z,1025.40
2023-03-28T04:02:32.488Z,1025.39
2023-03-28T04:07:39.887Z,1025.38
2023-03-28T04:12:47.493Z,1025.37
2023-03-28T04:17:55.167Z,1025.41
2023-03-28T04:23:02.671Z,1025.38
2023-03-28T04:28:10.287Z,1025.49
2023-03-28T04:33:18.022Z,1025.50
2023-03-28T04:38:25.508Z,1025.57
2023-03-28T04:43:33.213Z,1025.61
2023-03-28T04:48:40.860Z,1025.68
2023-03-28T04:54:13.026Z,1025.76
2023-03-28T04:59:11.288Z,1025.78
2023-03-28T05:04:18.933Z,1025.83
2023-03-28T05:09:31.661Z,1025.84
2023-03-28T05:14:39.059Z,1025.94
2023-03-28T05:19:46.712Z,1026.04
2023-03-28T05:24:54.180Z,1026.07
2023-03-28T05:30:01.614Z,1026.12
2023-03-28T05:35:09.027Z,1026.13
2023-03-28T05:40:16.490Z,1026.19
2023-03-28T05:45:23.913Z,1026.22
2023-03-28T05:50:31.418Z,1026.24
2023-03-28T05:55:38.677Z,1026.25
2023-03-28T06:00:46.192Z,1026.35
2023-03-28T06:05:53.750Z,1026.39
2023-03-28T06:11:01.548Z,1026.44
2023-03-28T06:16:08.750Z,1026.45
2023-03-28T06:21:16.056Z,1026.47
2023-03-28T06:26:23.439Z,1026.53
2023-03-28T06:31:31.089Z,1026.60
2023-03-28T06:36:38.728Z,1026.59
2023-03-28T06:41:46.115Z,1026.62
2023-03-28T06:46:54.230Z,1026.64
2023-03-28T06:52:01.702Z,1026.67
2023-03-28T06:57:09.182Z,1026.65
2023-03-28T07:02:16.548Z,1026.67
2023-03-28T07:07:23.961Z,1026.76
2023-03-28T07:12:31.216Z,1026.84
2023-03-28T07:17:38.545Z,1026.86
2023-03-28T07:22:46.046Z,1026.90
2023-03-28T07:27:53.373Z,1026.97
2023-03-28T07:33:13.267Z,1026.94
2023-03-28T07:38:08.263Z,1026.92
2023-03-28T07:43:15.667Z,1026.88
2023-03-28T07:48:23.171Z,1026.93
2023-03-28T07:53:30.473Z,1026.93
2023-03-28T07:58:37.934Z,1026.92
2023-03-28T08:03:45.517Z,1026.96
2023-03-28T08:08:52.875Z,1026.99
2023-03-28T08:14:35.357Z,1027.04
2023-03-28T08:19:43.095Z,1027.00
2023-03-28T08:24:50.686Z,1026.98
2023-03-28T08:29:58.096Z,1026.96
2023-03-28T08:35:05.732Z,1026.95
2023-03-28T08:40:20.863Z,1027.00
2023-03-28T08:45:28.136Z,1027.00
2023-03-28T08:50:43.844Z,1026.99
2023-03-28T08:55:53.530Z,1026.98
2023-03-28T09:00:59.174Z,1026.99
2023-03-28T09:06:06.326Z,1026.98
2023-03-28T09:11:13.947Z,1026.99
2023-03-28T09:16:25.085Z,1026.95
2023-03-28T09:21:47.512Z,1026.93
2023-03-28T09:26:55.141Z,1026.90
2023-03-28T09:32:02.936Z,1026.87
2023-03-28T09:37:10.338Z,1026.88
2023-03-28T09:42:22.910Z,1026.90
2023-03-28T09:47:30.805Z,1026.79
2023-03-28T09:52:53.041Z,1026.79
2023-03-28T09:58:00.865Z,1026.68
2023-03-28T10:03:09.482Z,1026.65
2023-03-28T10:08:16.926Z,1026.55
2023-03-28T10:13:24.232Z,1026.55
2023-03-28T10:18:31.546Z,1026.57
2023-03-28T10:23:38.816Z,1026.58
2023-03-28T10:28:46.370Z,1026.51
2023-03-28T10:33:53.771Z,1026.47
2023-03-28T10:39:22.269Z,1026.44
2023-03-28T10:44:24.023Z,1026.36
2023-03-28T10:49:31.595Z,1026.35
2023-03-28T10:54:39.027Z,1026.27
2023-03-28T10:59:46.407Z,1026.29
2023-03-28T11:05:29.728Z,1026.23
2023-03-28T11:10:37.396Z,1026.09
2023-03-28T11:15:45.017Z,1026.04
2023-03-28T11:20:54.773Z,1025.97
2023-03-28T11:26:07.918Z,1025.90
2023-03-28T11:31:23.610Z,1025.82
2023-03-28T11:36:33.535Z,1025.75
2023-03-28T11:41:41.057Z,1025.77
2023-03-28T11:46:48.918Z,1025.64
2023-03-28T11:52:17.765Z,1025.55
2023-03-28T11:57:30.248Z,1025.55
2023-03-28T12:02:30.297Z,1025.49
2023-03-28T12:07:37.758Z,1025.45
2023-03-28T12:12:46.317Z,1025.39
2023-03-28T12:18:01.106Z,1025.33
2023-03-28T12:23:07.900Z,1025.31
2023-03-28T12:28:15.495Z,1025.20
2023-03-28T12:33:41.140Z,1025.06
2023-03-28T12:38:48.140Z,1024.99
2023-03-28T12:43:55.639Z,1024.97
2023-03-28T12:49:18.154Z,1024.91
2023-03-28T12:54:40.530Z,1024.74
2023-03-28T12:59:48.004Z,1024.64
2023-03-28T13:04:55.606Z,1024.68
2023-03-28T13:10:03.342Z,1024.61
2023-03-28T13:15:11.018Z,1024.47
2023-03-28T13:20:18.873Z,1024.41
2023-03-28T13:25:26.248Z,1024.25
2023-03-28T13:30:33.799Z,1024.28
2023-03-28T13:35:41.581Z,1024.29
2023-03-28T13:40:49.143Z,1024.21
2023-03-28T13:45:56.897Z,1024.15
2023-03-28T13:51:04.528Z,1024.14
2023-03-28T13:56:12.069Z,1024.02
2023-03-28T14:01:28.455Z,1023.93
2023-03-28T14:06:32.537Z,1023.91
2023-03-28T14:11:40.030Z,1023.84
2023-03-28T14:16:47.662Z,1023.82
2023-03-28T14:21:55.083Z,1023.80
2023-03-28T14:27:02.503Z,1023.80
2023-03-28T14:32:10.143Z,1023.73
2023-03-28T14:37:17.446Z,1023.65
2023-03-28T14:42:33.811Z,1023.47
2023-03-28T14:47:41.153Z,1023.49
2023-03-28T14:52:48.597Z,1023.48
2023-03-28T14:58:00.853Z,1023.44
2023-03-28T15:03:08.542Z,1023.36
2023-03-28T15:08:21.168Z,1023.34
2023-03-28T15:13:28.688Z,1023.35
2023-03-28T15:18:36.291Z,1023.33
2023-03-28T15:23:46.987Z,1023.23
2023-03-28T15:28:51.961Z,1023.17
2023-03-28T15:34:06.093Z,1023.18
2023-03-28T15:39:28.841Z,1023.17
2023-03-28T15:44:36.306Z,1023.12
2023-03-28T15:49:43.675Z,1023.13
2023-03-28T15:54:51.159Z,1023.13
2023-03-28T15:59:58.740Z,1023.03
2023-03-28T16:05:06.223Z,1022.93
2023-03-28T16:10:13.812Z,1022.93
2023-03-28T16:15:21.271Z,1022.92
2023-03-28T16:20:28.595Z,1022.79
2023-03-28T16:25:36.018Z,1022.71
2023-03-28T16:30:43.598Z,1022.72
2023-03-28T16:35:50.951Z,1022.69
2023-03-28T16:40:58.189Z,1022.71
2023-03-28T16:46:05.852Z,1022.79
2023-03-28T16:51:13.032Z,1022.82
2023-03-28T16:56:35.448Z,1022.75
2023-03-28T17:01:42.764Z,1022.72
2023-03-28T17:06:49.966Z,1022.75
2023-03-28T17:11:57.238Z,1022.78
2023-03-28T17:17:04.455Z,1022.76
2023-03-28T17:22:11.568Z,1022.71
2023-03-28T17:27:18.778Z,1022.65
2023-03-28T17:32:26.014Z,1022.64
2023-03-28T17:37:33.457Z,1022.70
2023-03-28T17:42:41.004Z,1022.72
2023-03-28T17:47:49.106Z,1022.71
2023-03-28T17:52:56.274Z,1022.64
2023-03-28T17:58:03.742Z,1022.68
2023-03-28T18:03:11.378Z,1022.62
2023-03-28T18:08:18.943Z,1022.61
2023-03-28T18:13:26.607Z,1022.53
2023-03-28T18:18:34.087Z,1022.54
2023-03-28T18:23:41.778Z,1022.48
2023-03-28T18:28:49.572Z,1022.49
2023-03-28T18:33:57.134Z,1022.44
2023-03-28T18:39:05.766Z,1022.43
2023-03-28T18:44:13.496Z,1022.44
2023-03-28T18:49:20.839Z,1022.41
2023-03-28T18:54:28.297Z,1022.48
2023-03-28T18:59:35.940Z,1022.38
2023-03-28T19:04:44.125Z,1022.32
2023-03-28T19:09:51.546Z,1022.31
2023-03-28T19:14:59.283Z,1022.34
2023-03-28T19:20:06.873Z,1022.36
2023-03-28T19:25:14.592Z,1022.43
2023-03-28T19:30:22.252Z,1022.43
2023-03-28T19:35:29.557Z,1022.29
2023-03-28T19:40:37.041Z,1022.18
2023-03-28T19:45:44.662Z,1022.09
2023-03-28T19:50:51.973Z,1021.96
2023-03-28T19:56:00.118Z,1022.12
2023-03-28T20:01:07.236Z,1021.97
2023-03-28T20:06:14.739Z,1021.93
2023-03-28T20:11:22.416Z,1021.97
2023-03-28T20:16:29.760Z,1022.08
2023-03-28T20:21:37.316Z,1022.15
2023-03-28T20:26:44.939Z,1022.16
2023-03-28T20:31:53.548Z,1022.15
2023-03-28T20:37:01.115Z,1022.29
2023-03-28T20:42:08.512Z,1022.31
2023-03-28T20:47:15.810Z,1022.32
2023-03-28T20:52:23.058Z,1022.18
2023-03-28T20:57:30.425Z,1022.26
2023-03-28T21:02:37.851Z,1022.27
2023-03-28T21:07:45.083Z,1022.10
2023-03-28T21:12:52.377Z,1022.19
2023-03-28T21:17:59.725Z,1021.88
2023-03-28T21:23:06.979Z,1022.21
2023-03-28T21:28:14.319Z,1022.14
2023-03-28T21:33:21.537Z,1022.31
2023-03-28T21:38:28.806Z,1021.94
2023-03-28T21:43:36.075Z,1022.37
2023-03-28T21:48:43.407Z,1022.36
2023-03-28T21:53:50.637Z,1022.07
2023-03-28T21:58:57.950Z,1021.97
2023-03-28T22:04:05.262Z,1021.85
2023-03-28T22:09:12.515Z,1022.10
2023-03-28T22:14:19.798Z,1022.17
2023-03-28T22:19:27.100Z,1022.24
2023-03-28T22:24:34.269Z,1022.10
2023-03-28T22:29:41.507Z,1022.03
2023-03-28T22:34:48.860Z,1022.12
2023-03-28T22:39:56.021Z,1022.02
2023-03-28T22:45:03.382Z,1021.91
2023-03-28T22:50:10.724Z,1021.66
2023-03-28T22:55:53.160Z,1021.75
2023-03-28T23:01:22.038Z,1021.56
2023-03-28T23:06:51.509Z,1021.76
2023-03-28T23:12:43.914Z,1021.90
2023-03-28T23:17:11.142Z,1021.99
2023-03-28T23:22:22.606Z,1022.03
2023-03-28T23:27:30.201Z,1022.29
2023-03-28T23:32:38.076Z,1022.24
2023-03-28T23:37:45.851Z,1022.02
2023-03-28T23:42:56.431Z,1021.81
2023-03-28T23:48:06.920Z,1021.88
2023-03-28T23:53:16.583Z,1021.98
2023-03-28T23:58:24.253Z,1021.92
